createdAt,value
2023-04-27T00:00:16.720Z,5.87
2023-04-27T00:02:45.647Z,6.00
2023-04-27T00:05:14.690Z,5.97
2023-04-27T00:07:43.234Z,6.33
2023-04-27T00:10:12.201Z,6.10
2023-04-27T00:12:42.700Z,6.67
2023-04-27T00:15:11.867Z,5.87
2023-04-27T00:17:40.328Z,5.80
2023-04-27T00:20:11.938Z,5.53
2023-04-27T00:22:40.999Z,7.03
2023-04-27T00:25:09.932Z,6.00
2023-04-27T00:27:38.304Z,6.20
2023-04-27T00:30:09.123Z,5.87
2023-04-27T00:32:37.685Z,6.30
2023-04-27T00:35:06.283Z,5.90
2023-04-27T00:37:34.725Z,6.43
2023-04-27T00:40:03.981Z,6.13
2023-04-27T00:42:32.367Z,6.17
2023-04-27T00:45:00.886Z,6.53
2023-04-27T00:47:31.163Z,6.37
2023-04-27T00:49:59.672Z,6.73
2023-04-27T00:52:28.220Z,7.57
2023-04-27T00:54:56.708Z,6.60
2023-04-27T00:57:25.139Z,6.60
2023-04-27T00:59:54.065Z,7.17
2023-04-27T01:02:22.939Z,6.77
2023-04-27T01:04:53.539Z,7.30
2023-04-27T01:07:21.996Z,7.20
2023-04-27T01:09:51.018Z,6.97
2023-04-27T01:12:19.440Z,6.40
2023-04-27T01:14:48.096Z,6.43
2023-04-27T01:17:18.366Z,6.73
2023-04-27T01:19:47.223Z,6.93
2023-04-27T01:22:17.273Z,6.57
2023-04-27T01:24:47.096Z,7.33
2023-04-27T01:27:15.620Z,6.20
2023-04-27T01:29:44.806Z,6.33
2023-04-27T01:32:13.457Z,6.93
2023-04-27T01:34:41.837Z,6.13
2023-04-27T01:37:10.288Z,6.47
2023-04-27T01:39:38.991Z,6.37
2023-04-27T01:42:09.263Z,6.37
2023-04-27T01:44:38.326Z,7.00
2023-04-27T01:47:06.914Z,7.27
2023-04-27T01:49:35.402Z,7.07
2023-04-27T01:52:03.872Z,6.70
2023-04-27T01:54:32.250Z,6.43
2023-04-27T01:57:01.741Z,6.63
2023-04-27T01:59:31.535Z,6.53
2023-04-27T02:02:00.182Z,6.37
2023-04-27T02:04:28.780Z,6.50
2023-04-27T02:06:57.310Z,6.67
2023-04-27T02:09:25.717Z,6.47
2023-04-27T02:11:54.243Z,5.97
2023-04-27T02:14:23.039Z,6.20
2023-04-27T02:16:52.796Z,5.63
2023-04-27T02:19:21.862Z,6.20
2023-04-27T02:21:50.272Z,6.17
2023-04-27T02:24:18.789Z,5.70
2023-04-27T02:26:47.239Z,6.20
2023-04-27T02:29:15.881Z,5.90
2023-04-27T02:31:44.813Z,5.73
2023-04-27T02:34:14.694Z,5.43
2023-04-27T02:36:43.156Z,5.83
2023-04-27T02:39:11.938Z,5.97
2023-04-27T02:41:40.585Z,5.97
2023-04-27T02:44:08.976Z,5.93
2023-04-27T02:46:37.539Z,5.70
2023-04-27T02:49:06.165Z,5.60
2023-04-27T02:51:36.039Z,5.67
2023-04-27T02:54:04.759Z,6.03
2023-04-27T02:56:33.235Z,6.17
2023-04-27T02:59:01.817Z,5.87
2023-04-27T03:01:30.335Z,5.93
2023-04-27T03:03:58.898Z,6.10
2023-04-27T03:06:27.837Z,6.17
2023-04-27T03:08:57.761Z,5.67
2023-04-27T03:11:26.170Z,6.03
2023-04-27T03:13:54.718Z,6.33
2023-04-27T03:16:23.242Z,5.20
2023-04-27T03:18:51.738Z,6.10
2023-04-27T03:21:20.119Z,5.53
2023-04-27T03:23:48.536Z,5.67
2023-04-27T03:26:18.971Z,5.17
2023-04-27T03:28:47.391Z,5.93
2023-04-27T03:31:16.212Z,6.17
2023-04-27T03:33:44.760Z,6.03
2023-04-27T03:36:13.227Z,6.30
2023-04-27T03:38:41.772Z,5.83
2023-04-27T03:41:10.337Z,5.67
2023-04-27T03:43:40.117Z,5.80
2023-04-27T03:46:08.598Z,5.67
2023-04-27T03:48:37.228Z,5.63
2023-04-27T03:51:05.719Z,5.40
2023-04-27T03:53:34.747Z,6.17
2023-04-27T03:56:03.926Z,5.73
2023-04-27T03:58:32.483Z,5.90
2023-04-27T04:01:02.453Z,5.67
2023-04-27T04:03:30.992Z,5.90
2023-04-27T04:05:59.691Z,6.03
2023-04-27T04:08:28.169Z,5.67
2023-04-27T04:10:56.612Z,5.63
2023-04-27T04:13:25.009Z,5.67
2023-04-27T04:16:00.820Z,5.63
2023-04-27T04:18:30.716Z,5.57
2023-04-27T04:20:59.076Z,5.83
2023-04-27T04:23:27.873Z,6.27
2023-04-27T04:25:57.838Z,5.90
2023-04-27T04:28:26.432Z,5.80
2023-04-27T04:30:54.898Z,6.50
2023-04-27T04:33:24.311Z,6.03
2023-04-27T04:35:54.802Z,5.83
2023-04-27T04:38:23.536Z,6.00
2023-04-27T04:40:52.927Z,6.00
2023-04-27T04:43:21.665Z,6.50
2023-04-27T04:45:50.094Z,6.97
2023-04-27T04:48:19.912Z,6.30
2023-04-27T04:50:48.381Z,6.87
2023-04-27T04:53:18.399Z,6.83
2023-04-27T04:55:47.402Z,6.37
2023-04-27T04:58:15.843Z,6.43
2023-04-27T05:00:44.326Z,6.70
2023-04-27T05:03:13.045Z,7.20
2023-04-27T05:05:41.582Z,6.67
2023-04-27T05:08:10.002Z,6.57
2023-04-27T05:10:39.908Z,7.07
2023-04-27T05:13:08.357Z,6.70
2023-04-27T05:15:36.897Z,6.73
2023-04-27T05:18:05.510Z,6.47
2023-04-27T05:20:36.421Z,6.47
2023-04-27T05:23:05.037Z,6.13
2023-04-27T05:25:33.576Z,7.50
2023-04-27T05:28:03.472Z,6.70
2023-04-27T05:30:31.962Z,6.50
2023-04-27T05:33:00.399Z,6.40
2023-04-27T05:35:29.448Z,6.67
2023-04-27T05:37:57.833Z,6.70
2023-04-27T05:40:26.233Z,6.30
2023-04-27T05:42:54.638Z,6.83
2023-04-27T05:45:24.504Z,6.63
2023-04-27T05:47:53.185Z,6.77
2023-04-27T05:50:21.606Z,6.27
2023-04-27T05:52:50.159Z,7.17
2023-04-27T05:55:18.493Z,6.57
2023-04-27T05:57:51.717Z,6.50
2023-04-27T06:00:27.090Z,6.77
2023-04-27T06:02:55.800Z,6.90
2023-04-27T06:05:24.584Z,6.53
2023-04-27T06:07:53.124Z,6.00
2023-04-27T06:10:21.553Z,7.00
2023-04-27T06:12:49.913Z,6.83
2023-04-27T06:15:18.341Z,6.97
2023-04-27T06:17:48.202Z,6.53
2023-04-27T06:20:16.594Z,6.13
2023-04-27T06:22:46.798Z,6.40
2023-04-27T06:25:15.280Z,6.90
2023-04-27T06:27:43.771Z,6.30
2023-04-27T06:30:12.751Z,6.37
2023-04-27T06:32:41.285Z,6.33
2023-04-27T06:35:11.600Z,6.83
2023-04-27T06:37:40.195Z,5.43
2023-04-27T06:40:09.512Z,6.20
2023-04-27T06:42:37.929Z,6.83
2023-04-27T06:45:07.367Z,5.87
2023-04-27T06:47:35.758Z,5.17
2023-04-27T06:50:04.331Z,5.80
2023-04-27T06:52:35.049Z,5.17
2023-04-27T06:55:03.759Z,5.00
2023-04-27T06:57:32.141Z,5.60
2023-04-27T07:00:00.629Z,5.47
2023-04-27T07:02:29.030Z,5.20
2023-04-27T07:04:57.482Z,5.20
2023-04-27T07:07:25.949Z,5.30
2023-04-27T07:09:55.781Z,5.07
2023-04-27T07:12:24.513Z,5.40
2023-04-27T07:14:52.985Z,5.07
2023-04-27T07:17:21.435Z,5.60
2023-04-27T07:19:49.933Z,4.73
2023-04-27T07:22:18.487Z,4.90
2023-04-27T07:24:47.075Z,5.10
2023-04-27T07:27:16.766Z,4.77
2023-04-27T07:29:45.086Z,4.90
2023-04-27T07:32:13.660Z,5.03
2023-04-27T07:34:52.696Z,4.70
2023-04-27T07:37:21.704Z,4.90
2023-04-27T07:39:50.546Z,4.87
2023-04-27T07:42:20.310Z,4.50
2023-04-27T07:44:50.381Z,4.33
2023-04-27T07:47:18.824Z,4.53
2023-04-27T07:49:47.316Z,3.83
2023-04-27T07:52:15.946Z,3.97
2023-04-27T07:54:44.394Z,3.57
2023-04-27T07:57:12.995Z,3.97
2023-04-27T07:59:42.799Z,3.90
2023-04-27T08:02:19.599Z,3.80
2023-04-27T08:04:49.114Z,3.80
2023-04-27T08:07:18.427Z,3.60
2023-04-27T08:09:47.497Z,3.40
2023-04-27T08:12:16.045Z,3.13
2023-04-27T08:14:45.848Z,3.50
2023-04-27T08:17:14.211Z,3.23
2023-04-27T08:19:42.751Z,3.33
2023-04-27T08:22:11.233Z,3.07
2023-04-27T08:24:39.787Z,3.37
2023-04-27T08:27:08.335Z,3.20
2023-04-27T08:29:36.823Z,3.40
2023-04-27T08:32:07.020Z,3.13
2023-04-27T08:34:35.340Z,3.83
2023-04-27T08:37:04.582Z,3.73
2023-04-27T08:39:33.164Z,3.70
2023-04-27T08:42:01.550Z,3.13
2023-04-27T08:44:29.963Z,2.93
2023-04-27T08:46:58.381Z,3.07
2023-04-27T08:49:28.229Z,2.90
2023-04-27T08:51:57.048Z,3.30
2023-04-27T08:54:25.655Z,3.50
2023-04-27T08:56:54.177Z,3.90
2023-04-27T08:59:22.556Z,3.70
2023-04-27T09:01:51.295Z,3.33
2023-04-27T09:04:20.064Z,3.40
2023-04-27T09:06:50.911Z,3.30
2023-04-27T09:09:25.966Z,3.57
2023-04-27T09:11:54.474Z,3.93
2023-04-27T09:14:23.157Z,2.97
2023-04-27T09:16:57.667Z,3.30
2023-04-27T09:19:26.487Z,3.27
2023-04-27T09:22:05.896Z,3.40
2023-04-27T09:24:34.334Z,3.33
2023-04-27T09:27:03.286Z,3.30
2023-04-27T09:29:34.804Z,3.73
2023-04-27T09:32:03.874Z,3.33
2023-04-27T09:34:41.970Z,3.70
2023-04-27T09:37:11.952Z,3.50
2023-04-27T09:39:40.464Z,3.93
2023-04-27T09:42:09.490Z,3.50
2023-04-27T09:44:37.987Z,3.40
2023-04-27T09:47:06.353Z,3.47
2023-04-27T09:49:35.020Z,3.30
2023-04-27T09:52:04.241Z,3.60
2023-04-27T09:54:34.042Z,3.23
2023-04-27T09:57:04.837Z,3.80
2023-04-27T09:59:38.556Z,3.97
2023-04-27T10:02:17.431Z,3.97
2023-04-27T10:04:57.273Z,3.93
2023-04-27T10:07:26.394Z,4.17
2023-04-27T10:09:56.214Z,3.93
2023-04-27T10:12:25.001Z,3.77
2023-04-27T10:14:53.919Z,4.00
2023-04-27T10:17:26.589Z,3.60
2023-04-27T10:19:58.009Z,3.80
2023-04-27T10:22:27.065Z,3.87
2023-04-27T10:24:56.996Z,3.77
2023-04-27T10:27:26.384Z,4.20
2023-04-27T10:29:55.060Z,3.83
2023-04-27T10:32:24.186Z,3.70
2023-04-27T10:34:53.307Z,3.60
2023-04-27T10:37:25.447Z,4.03
2023-04-27T10:39:55.047Z,4.20
2023-04-27T10:42:30.771Z,4.07
2023-04-27T10:44:59.496Z,3.40
2023-04-27T10:47:40.083Z,4.10
2023-04-27T10:50:11.276Z,3.83
2023-04-27T10:52:42.310Z,4.10
2023-04-27T10:55:17.191Z,3.83
2023-04-27T10:57:51.089Z,4.30
2023-04-27T11:00:24.019Z,3.77
2023-04-27T11:02:52.514Z,3.90
2023-04-27T11:05:21.040Z,3.90
2023-04-27T11:07:49.452Z,4.17
2023-04-27T11:10:18.417Z,4.30
2023-04-27T11:12:46.839Z,3.93
2023-04-27T11:15:16.650Z,3.70
2023-04-27T11:17:45.008Z,3.87
2023-04-27T11:20:14.450Z,3.97
2023-04-27T11:22:46.838Z,4.57
2023-04-27T11:25:15.271Z,4.47
2023-04-27T11:27:45.205Z,4.87
2023-04-27T11:30:24.084Z,4.47
2023-04-27T11:32:53.790Z,4.00
2023-04-27T11:35:22.309Z,4.00
2023-04-27T11:37:58.474Z,4.43
2023-04-27T11:40:28.657Z,4.33
2023-04-27T11:43:00.002Z,4.20
2023-04-27T11:45:30.897Z,4.17
2023-04-27T11:48:00.103Z,4.47
2023-04-27T11:50:29.139Z,4.50
2023-04-27T11:52:57.518Z,4.77
2023-04-27T11:55:26.822Z,4.20
2023-04-27T11:57:59.099Z,4.27
2023-04-27T12:00:27.593Z,4.50
2023-04-27T12:02:57.491Z,4.60
2023-04-27T12:05:27.315Z,4.80
2023-04-27T12:07:58.803Z,4.93
2023-04-27T12:10:27.173Z,4.53
2023-04-27T12:12:55.749Z,5.00
2023-04-27T12:15:24.417Z,4.40
2023-04-27T12:17:52.952Z,4.30
2023-04-27T12:20:23.150Z,4.50
2023-04-27T12:22:52.035Z,4.77
2023-04-27T12:25:21.412Z,4.80
2023-04-27T12:27:50.169Z,4.23
2023-04-27T12:30:18.820Z,4.67
2023-04-27T12:32:47.304Z,4.60
2023-04-27T12:35:16.006Z,4.33
2023-04-27T12:37:45.790Z,5.20
2023-04-27T12:40:14.845Z,4.67
2023-04-27T12:42:43.180Z,4.63
2023-04-27T12:45:12.217Z,5.23
2023-04-27T12:50:15.804Z,4.77
2023-04-27T12:52:44.178Z,4.90
2023-04-27T12:55:28.853Z,5.10
2023-04-27T12:58:03.975Z,5.43
2023-04-27T13:00:32.405Z,5.30
2023-04-27T13:03:01.134Z,5.30
2023-04-27T13:05:32.727Z,4.70
2023-04-27T13:08:01.101Z,4.83
2023-04-27T13:10:31.145Z,5.13
2023-04-27T13:12:59.765Z,5.47
2023-04-27T13:15:28.486Z,5.10
2023-04-27T13:17:59.107Z,5.50
2023-04-27T13:20:27.848Z,5.57
2023-04-27T13:22:56.426Z,5.23
2023-04-27T13:25:24.906Z,5.40
2023-04-27T13:27:54.754Z,5.60
2023-04-27T13:30:23.417Z,5.00
2023-04-27T13:32:52.269Z,4.80
2023-04-27T13:35:20.959Z,4.83
2023-04-27T13:37:49.880Z,5.90
2023-04-27T13:40:19.262Z,4.97
2023-04-27T13:42:47.606Z,5.53
2023-04-27T13:45:17.706Z,5.00
2023-04-27T13:47:46.907Z,5.80
2023-04-27T13:50:16.449Z,6.00
2023-04-27T13:52:45.091Z,5.83
2023-04-27T13:55:13.699Z,5.70
2023-04-27T13:57:42.126Z,5.80
2023-04-27T14:00:13.858Z,5.93
2023-04-27T14:02:43.679Z,5.77
2023-04-27T14:05:12.903Z,5.60
2023-04-27T14:07:41.196Z,5.77
2023-04-27T14:10:11.756Z,5.40
2023-04-27T14:12:41.114Z,5.53
2023-04-27T14:15:09.881Z,5.43
2023-04-27T14:17:38.190Z,5.17
2023-04-27T14:20:08.913Z,5.20
2023-04-27T14:22:38.004Z,5.43
2023-04-27T14:25:06.821Z,5.40
2023-04-27T14:27:35.430Z,5.77
2023-04-27T14:30:07.385Z,5.33
2023-04-27T14:32:36.208Z,5.77
2023-04-27T14:35:04.721Z,4.83
2023-04-27T14:37:34.971Z,5.20
2023-04-27T14:40:04.694Z,4.97
2023-04-27T14:42:33.560Z,5.17
2023-04-27T14:45:03.907Z,5.27
2023-04-27T14:47:32.463Z,5.13
2023-04-27T14:50:02.189Z,5.20
2023-04-27T14:52:30.674Z,5.73
2023-04-27T14:55:00.821Z,5.00
2023-04-27T14:57:29.224Z,5.60
2023-04-27T14:59:59.107Z,6.10
2023-04-27T15:02:27.609Z,4.23
2023-04-27T15:04:56.279Z,4.87
2023-04-27T15:07:24.830Z,4.43
2023-04-27T15:09:54.417Z,4.50
2023-04-27T15:12:24.304Z,4.33
2023-04-27T15:14:53.825Z,4.80
2023-04-27T15:17:22.174Z,4.53
2023-04-27T15:19:51.878Z,4.43
2023-04-27T15:22:20.945Z,4.87
2023-04-27T15:24:49.406Z,5.07
2023-04-27T15:27:17.814Z,4.60
2023-04-27T15:29:47.532Z,5.10
2023-04-27T15:32:17.497Z,4.87
2023-04-27T15:34:46.022Z,4.60
2023-04-27T15:37:14.812Z,5.40
2023-04-27T15:39:43.462Z,5.00
2023-04-27T15:42:12.352Z,4.70
2023-04-27T15:44:41.058Z,5.23
2023-04-27T15:47:11.509Z,6.00
2023-04-27T15:49:53.501Z,5.33
2023-04-27T15:52:28.152Z,5.23
2023-04-27T15:54:56.493Z,5.40
2023-04-27T15:57:24.869Z,5.67
2023-04-27T15:59:55.221Z,5.43
2023-04-27T16:02:25.093Z,5.70
2023-04-27T16:04:55.867Z,5.93
2023-04-27T16:07:24.320Z,5.83
2023-04-27T16:09:52.774Z,5.70
2023-04-27T16:12:21.584Z,5.90
2023-04-27T16:14:51.893Z,5.83
2023-04-27T16:17:20.374Z,5.33
2023-04-27T16:19:50.078Z,5.40
2023-04-27T16:22:18.442Z,5.20
2023-04-27T16:24:50.357Z,4.97
2023-04-27T16:27:22.047Z,5.93
2023-04-27T16:29:50.352Z,5.80
2023-04-27T16:32:20.432Z,5.97
2023-04-27T16:34:50.427Z,4.90
2023-04-27T16:37:18.879Z,5.50
2023-04-27T16:39:47.269Z,6.17
2023-04-27T16:42:20.133Z,5.37
2023-04-27T16:44:48.929Z,5.30
2023-04-27T16:47:17.427Z,5.50
2023-04-27T16:49:46.200Z,5.40
2023-04-27T16:52:17.182Z,5.77
2023-04-27T16:54:47.858Z,5.63
2023-04-27T16:57:16.681Z,5.83
2023-04-27T16:59:45.175Z,5.67
2023-04-27T17:02:23.576Z,5.90
2023-04-27T17:04:53.084Z,5.47
2023-04-27T17:07:23.032Z,5.83
2023-04-27T17:09:51.598Z,6.43
2023-04-27T17:12:20.249Z,5.90
2023-04-27T17:14:48.883Z,5.90
2023-04-27T17:17:17.370Z,5.30
2023-04-27T17:19:45.727Z,5.60
2023-04-27T17:22:15.014Z,5.93
2023-04-27T17:24:44.929Z,6.00
2023-04-27T17:27:13.276Z,6.20
2023-04-27T17:29:41.543Z,5.73
2023-04-27T17:32:10.418Z,5.07
2023-04-27T17:34:41.061Z,5.50
2023-04-27T17:37:11.252Z,5.70
2023-04-27T17:39:39.743Z,5.80
2023-04-27T17:42:12.505Z,5.40
2023-04-27T17:44:42.299Z,6.03
2023-04-27T17:47:11.847Z,5.67
2023-04-27T17:49:40.409Z,5.70
2023-04-27T17:52:09.647Z,5.60
2023-04-27T17:54:38.072Z,5.83
2023-04-27T17:57:06.458Z,5.60
2023-04-27T17:59:36.262Z,4.97
2023-04-27T18:02:04.699Z,5.27
2023-04-27T18:04:33.528Z,5.30
2023-04-27T18:07:02.033Z,6.33
2023-04-27T18:09:32.853Z,5.40
2023-04-27T18:12:02.359Z,5.57
2023-04-27T18:14:30.938Z,5.20
2023-04-27T18:17:00.771Z,5.00
2023-04-27T18:19:29.096Z,5.67
2023-04-27T18:21:57.697Z,5.00
2023-04-27T18:24:26.117Z,5.10
2023-04-27T18:26:54.734Z,5.40
2023-04-27T18:29:23.152Z,5.20
2023-04-27T18:31:51.680Z,5.03
2023-04-27T18:34:21.404Z,6.50
2023-04-27T18:36:52.050Z,6.23
2023-04-27T18:39:20.844Z,5.77
2023-04-27T18:41:49.282Z,5.73
2023-04-27T18:44:20.759Z,4.83
2023-04-27T18:46:49.108Z,5.00
2023-04-27T18:49:17.788Z,4.57
2023-04-27T18:51:48.382Z,4.70
2023-04-27T18:54:16.854Z,4.87
2023-04-27T18:56:45.672Z,4.70
2023-04-27T18:59:14.327Z,5.20
2023-04-27T19:01:43.068Z,4.87
2023-04-27T19:04:11.746Z,4.80
2023-04-27T19:06:40.865Z,5.03
2023-04-27T19:09:10.800Z,5.10
2023-04-27T19:11:39.271Z,5.13
2023-04-27T19:14:08.195Z,4.70
2023-04-27T19:16:38.059Z,4.83
2023-04-27T19:19:06.624Z,5.20
2023-04-27T19:21:35.014Z,4.80
2023-04-27T19:24:03.689Z,5.10
2023-04-27T19:26:33.666Z,4.83
2023-04-27T19:29:02.124Z,4.63
2023-04-27T19:31:30.638Z,4.70
2023-04-27T19:34:18.148Z,5.00
2023-04-27T19:36:46.866Z,5.10
2023-04-27T19:39:16.000Z,4.87
2023-04-27T19:41:46.084Z,4.90
2023-04-27T19:44:14.753Z,5.10
2023-04-27T19:46:43.402Z,4.90
2023-04-27T19:49:12.024Z,4.70
2023-04-27T19:51:40.716Z,5.33
2023-04-27T19:54:09.967Z,4.93
2023-04-27T19:56:38.370Z,5.67
2023-04-27T19:59:08.064Z,5.60
2023-04-27T20:01:36.592Z,5.50
2023-04-27T20:04:05.203Z,5.90
2023-04-27T20:06:34.387Z,5.17
2023-04-27T20:09:02.866Z,5.20
2023-04-27T20:11:31.185Z,5.17
2023-04-27T20:13:59.600Z,5.30
2023-04-27T20:16:29.423Z,5.17
2023-04-27T20:18:57.867Z,5.43
2023-04-27T20:21:26.427Z,4.80
2023-04-27T20:23:57.918Z,5.10
2023-04-27T20:26:26.295Z,5.50
2023-04-27T20:28:54.773Z,6.30
2023-04-27T20:31:23.247Z,6.03
2023-04-27T20:33:53.046Z,4.87
2023-04-27T20:36:23.010Z,5.43
2023-04-27T20:38:54.852Z,5.60
2023-04-27T20:41:23.600Z,5.33
2023-04-27T20:43:52.442Z,5.33
2023-04-27T20:46:21.131Z,5.50
2023-04-27T20:48:50.948Z,5.23
2023-04-27T20:51:21.786Z,6.90
2023-04-27T20:53:50.213Z,6.17
2023-04-27T20:56:18.672Z,6.17
2023-04-27T20:58:47.243Z,6.20
2023-04-27T21:01:15.735Z,5.17
2023-04-27T21:03:44.338Z,5.80
2023-04-27T21:06:14.220Z,5.43
2023-04-27T21:08:44.269Z,4.97
2023-04-27T21:11:12.830Z,5.33
2023-04-27T21:13:41.179Z,5.20
2023-04-27T21:16:09.612Z,5.20
2023-04-27T21:18:37.968Z,5.27
2023-04-27T21:21:06.584Z,5.10
2023-04-27T21:23:36.493Z,5.60
2023-04-27T21:26:06.356Z,5.30
2023-04-27T21:28:34.709Z,5.40
2023-04-27T21:31:03.437Z,5.60
2023-04-27T21:33:32.125Z,5.43
2023-04-27T21:36:00.605Z,5.13
2023-04-27T21:38:29.194Z,5.30
2023-04-27T21:40:58.012Z,5.10
2023-04-27T21:43:27.734Z,5.67
2023-04-27T21:45:56.098Z,5.57
2023-04-27T21:48:24.452Z,5.10
2023-04-27T21:50:52.830Z,5.00
2023-04-27T21:53:21.553Z,4.90
2023-04-27T21:55:51.120Z,5.50
2023-04-27T21:58:19.488Z,5.43
2023-04-27T22:00:49.476Z,5.43
2023-04-27T22:03:18.117Z,4.87
2023-04-27T22:05:49.083Z,5.63
2023-04-27T22:08:18.219Z,5.37
2023-04-27T22:10:47.281Z,5.53
2023-04-27T22:13:19.405Z,5.20
2023-04-27T22:15:49.783Z,4.93
2023-04-27T22:18:18.587Z,5.67
2023-04-27T22:20:50.159Z,5.67
2023-04-27T22:23:18.836Z,6.40
2023-04-27T22:25:47.350Z,5.27
2023-04-27T22:28:15.865Z,5.57
2023-04-27T22:30:44.339Z,5.33
2023-04-27T22:33:14.272Z,5.47
2023-04-27T22:35:43.098Z,6.57
2023-04-27T22:38:12.284Z,7.17
2023-04-27T22:40:43.522Z,5.73
2023-04-27T22:43:12.010Z,5.60
2023-04-27T22:45:40.945Z,5.67
2023-04-27T22:48:09.493Z,5.50
2023-04-27T22:50:39.336Z,5.83
2023-04-27T22:53:07.908Z,5.87
2023-04-27T22:55:36.600Z,5.67
2023-04-27T22:58:05.265Z,5.80
2023-04-27T23:00:33.818Z,6.57
2023-04-27T23:03:02.237Z,5.67
2023-04-27T23:05:30.682Z,5.73
2023-04-27T23:08:01.002Z,5.70
2023-04-27T23:10:31.262Z,6.00
2023-04-27T23:13:01.893Z,5.67
2023-04-27T23:15:30.697Z,6.50
2023-04-27T23:17:59.089Z,5.97
2023-04-27T23:20:29.029Z,6.90
2023-04-27T23:22:57.901Z,6.30
2023-04-27T23:25:27.652Z,6.33
2023-04-27T23:27:55.993Z,5.97
2023-04-27T23:30:24.574Z,6.40
2023-04-27T23:32:53.466Z,5.83
2023-04-27T23:35:22.158Z,6.33
2023-04-27T23:37:50.697Z,6.00
2023-04-27T23:40:19.334Z,6.40
2023-04-27T23:42:56.058Z,6.97
2023-04-27T23:45:24.691Z,7.20
2023-04-27T23:47:53.226Z,6.37
2023-04-27T23:50:21.741Z,7.07
2023-04-27T23:52:50.176Z,6.63
2023-04-27T23:55:18.661Z,6.93
2023-04-27T23:57:47.062Z,7.40
